createdAt,value
2019-05-01T00:01:01.702Z,101373.95
2019-05-01T00:03:49.640Z,101369.02
2019-05-01T00:06:22.236Z,101367.17
2019-05-01T00:08:55.756Z,101360.77
2019-05-01T00:11:26.750Z,101355.38
2019-05-01T00:13:57.862Z,101350.58
2019-05-01T00:16:28.856Z,101351.00
2019-05-01T00:18:59.886Z,101348.92
2019-05-01T00:21:30.935Z,101342.94
2019-05-01T00:24:01.968Z,101338.29
2019-05-01T00:26:32.908Z,101334.45
2019-05-01T00:29:03.945Z,101337.67
2019-05-01T00:31:34.992Z,101332.94
2019-05-01T00:34:06.008Z,101331.72
2019-05-01T00:36:37.005Z,101333.25
2019-05-01T00:39:09.464Z,101328.70
2019-05-01T00:41:40.481Z,101328.37
2019-05-01T00:44:11.514Z,101322.78
2019-05-01T00:46:42.443Z,101321.94
2019-05-01T00:49:13.467Z,101324.18
2019-05-01T00:51:45.972Z,101324.18
2019-05-01T00:54:17.815Z,101319.80
2019-05-01T00:56:50.401Z,101319.73
2019-05-01T00:59:22.966Z,101316.25
2019-05-01T01:02:06.091Z,101314.58
2019-05-01T01:04:37.114Z,101304.30
2019-05-01T01:07:09.684Z,101311.37
2019-05-01T01:09:42.178Z,101307.95
2019-05-01T01:12:13.164Z,101303.59
2019-05-01T01:14:47.342Z,101313.28
2019-05-01T01:17:18.364Z,101305.41
2019-05-01T01:19:49.378Z,101300.97
2019-05-01T01:22:20.478Z,101297.03
2019-05-01T01:24:53.161Z,101298.28
2019-05-01T01:27:26.046Z,101293.37
2019-05-01T01:29:57.066Z,101287.77
2019-05-01T01:32:28.075Z,101290.78
2019-05-01T01:34:59.124Z,101284.57
2019-05-01T01:37:30.120Z,101286.97
2019-05-01T01:40:04.698Z,101287.20
2019-05-01T01:42:36.288Z,101282.50
2019-05-01T01:45:12.458Z,101276.97
2019-05-01T01:48:01.440Z,101282.14
2019-05-01T01:50:32.876Z,101276.52
2019-05-01T01:53:04.067Z,101273.39
2019-05-01T01:55:36.212Z,101269.16
2019-05-01T01:58:08.408Z,101262.99
2019-05-01T02:00:41.110Z,101257.00
2019-05-01T02:03:12.468Z,101254.03
2019-05-01T02:05:45.186Z,101244.79
2019-05-01T02:08:16.427Z,101247.41
2019-05-01T02:10:47.520Z,101247.53
2019-05-01T02:13:19.995Z,101246.31
2019-05-01T02:15:51.890Z,101244.91
2019-05-01T02:18:22.916Z,101238.75
2019-05-01T02:20:53.958Z,101234.22
2019-05-01T02:23:24.992Z,101236.74
2019-05-01T02:25:56.162Z,101231.44
2019-05-01T02:28:35.169Z,101232.20
2019-05-01T02:31:08.470Z,101226.13
2019-05-01T02:33:41.467Z,101220.09
2019-05-01T02:36:14.662Z,101214.84
2019-05-01T02:38:47.824Z,101212.03
2019-05-01T02:41:21.895Z,101199.02
2019-05-01T02:43:58.329Z,101200.62
2019-05-01T02:46:32.020Z,101196.33
2019-05-01T02:49:12.179Z,101191.51
2019-05-01T02:51:47.432Z,101186.61
2019-05-01T02:54:22.604Z,101184.73
2019-05-01T02:57:11.462Z,101180.76
2019-05-01T02:59:47.354Z,101178.14
2019-05-01T03:02:20.102Z,101174.30
2019-05-01T03:04:52.897Z,101174.84
2019-05-01T03:07:26.167Z,101167.75
2019-05-01T03:09:59.175Z,101168.99
2019-05-01T03:12:35.006Z,101162.56
2019-05-01T03:15:06.590Z,101160.77
2019-05-01T03:17:43.432Z,101159.53
2019-05-01T03:20:32.511Z,101157.80
2019-05-01T03:23:20.586Z,101160.42
2019-05-01T03:25:52.324Z,101158.89
2019-05-01T03:28:27.509Z,101163.63
2019-05-01T03:31:00.114Z,101153.58
2019-05-01T03:33:31.217Z,101153.20
2019-05-01T03:36:02.340Z,101156.55
2019-05-01T03:38:33.493Z,101157.16
2019-05-01T03:41:04.680Z,101157.22
2019-05-01T03:43:36.367Z,101143.45
2019-05-01T03:46:07.994Z,101147.50
2019-05-01T03:48:39.375Z,101141.63
2019-05-01T03:51:10.519Z,101146.81
2019-05-01T03:53:42.085Z,101145.75
2019-05-01T03:56:14.048Z,101143.91
2019-05-01T03:58:46.733Z,101149.72
2019-05-01T04:01:26.359Z,101141.12
2019-05-01T04:03:59.784Z,101137.73
2019-05-01T04:06:31.295Z,101135.89
2019-05-01T04:09:04.889Z,101127.45
2019-05-01T04:11:36.214Z,101133.50
2019-05-01T04:14:08.392Z,101132.44
2019-05-01T04:16:41.514Z,101133.17
2019-05-01T04:19:13.166Z,101133.49
2019-05-01T04:21:45.871Z,101130.33
2019-05-01T04:24:19.025Z,101128.66
2019-05-01T04:26:50.086Z,101125.70
2019-05-01T04:29:24.056Z,101123.52
2019-05-01T04:31:56.749Z,101120.85
2019-05-01T04:34:29.591Z,101124.03
2019-05-01T04:37:02.898Z,101120.08
2019-05-01T04:39:35.855Z,101114.59
2019-05-01T04:42:06.908Z,101108.92
2019-05-01T04:44:38.210Z,101113.25
2019-05-01T04:47:09.454Z,101100.36
2019-05-01T04:49:41.134Z,101102.33
2019-05-01T04:52:12.427Z,101101.04
2019-05-01T04:54:43.702Z,101100.88
2019-05-01T04:57:15.455Z,101098.75
2019-05-01T04:59:48.689Z,101097.70
2019-05-01T05:02:27.701Z,101092.61
2019-05-01T05:04:58.770Z,101096.78
2019-05-01T05:07:29.926Z,101091.05
2019-05-01T05:10:02.467Z,101097.65
2019-05-01T05:12:35.239Z,101089.54
2019-05-01T05:15:09.084Z,101100.12
2019-05-01T05:17:40.115Z,101095.38
2019-05-01T05:20:11.291Z,101100.16
2019-05-01T05:22:43.015Z,101096.19
2019-05-01T05:25:14.062Z,101096.19
2019-05-01T05:27:47.863Z,101099.82
2019-05-01T05:30:23.494Z,101095.51
2019-05-01T05:32:56.385Z,101093.45
2019-05-01T05:35:29.531Z,101088.33
2019-05-01T05:38:07.972Z,101097.69
2019-05-01T05:40:40.123Z,101091.41
2019-05-01T05:43:11.272Z,101097.02
2019-05-01T05:45:44.443Z,101087.15
2019-05-01T05:48:17.092Z,101092.05
2019-05-01T05:51:10.896Z,101085.02
2019-05-01T05:53:44.960Z,101087.58
2019-05-01T05:56:21.995Z,101081.41
2019-05-01T05:59:01.694Z,101085.75
2019-05-01T06:01:42.698Z,101085.62
2019-05-01T06:04:34.807Z,101076.28
2019-05-01T06:07:11.490Z,101073.35
2019-05-01T06:09:48.496Z,101076.94
2019-05-01T06:12:33.160Z,101072.16
2019-05-01T06:15:06.386Z,101068.33
2019-05-01T06:17:53.108Z,101069.66
2019-05-01T06:20:32.500Z,101067.52
2019-05-01T06:23:06.630Z,101061.48
2019-05-01T06:25:40.740Z,101055.61
2019-05-01T06:28:12.905Z,101051.48
2019-05-01T06:30:47.060Z,101050.69
2019-05-01T06:33:17.555Z,101053.30
2019-05-01T06:35:48.593Z,101055.55
2019-05-01T06:38:19.673Z,101056.89
2019-05-01T06:40:53.067Z,101056.77
2019-05-01T06:43:29.903Z,101059.99
2019-05-01T06:46:11.705Z,101053.63
2019-05-01T06:48:53.520Z,101052.91
2019-05-01T06:51:36.179Z,101055.61
2019-05-01T06:54:16.351Z,101059.24
2019-05-01T06:56:49.943Z,101053.23
2019-05-01T06:59:26.364Z,101059.07
2019-05-01T07:01:58.316Z,101052.27
2019-05-01T07:04:32.299Z,101050.36
2019-05-01T07:07:06.903Z,101047.88
2019-05-01T07:09:38.068Z,101050.95
2019-05-01T07:12:12.247Z,101041.07
2019-05-01T07:14:47.052Z,101039.83
2019-05-01T07:17:19.254Z,101038.95
2019-05-01T07:20:16.398Z,101039.56
2019-05-01T07:22:44.788Z,101041.70
2019-05-01T07:25:18.991Z,101036.86
2019-05-01T07:27:53.939Z,101033.91
2019-05-01T07:30:26.071Z,101026.68
2019-05-01T07:32:57.781Z,101033.05
2019-05-01T07:35:33.015Z,101028.41
2019-05-01T07:38:03.463Z,101027.41
2019-05-01T07:40:34.854Z,101020.48
2019-05-01T07:43:19.104Z,101017.60
2019-05-01T07:45:51.965Z,101020.86
2019-05-01T07:48:36.118Z,101018.31
2019-05-01T07:51:08.753Z,101023.45
2019-05-01T07:53:40.376Z,101019.92
2019-05-01T07:56:11.496Z,101015.02
2019-05-01T07:58:42.599Z,101011.42
2019-05-01T08:01:21.083Z,101011.13
2019-05-01T08:03:55.207Z,101005.70
2019-05-01T08:06:27.108Z,101009.45
2019-05-01T08:08:58.131Z,101009.48
2019-05-01T08:11:29.189Z,101006.91
2019-05-01T08:14:07.350Z,100998.31
2019-05-01T08:16:37.818Z,100995.63
2019-05-01T08:19:17.514Z,101004.09
2019-05-01T08:21:57.040Z,101002.20
2019-05-01T08:24:26.845Z,100997.98
2019-05-01T08:26:57.957Z,100999.28
2019-05-01T08:29:45.830Z,100997.95
2019-05-01T08:32:33.678Z,100992.67
2019-05-01T08:35:08.487Z,100993.63
2019-05-01T08:37:40.543Z,100985.96
2019-05-01T08:40:20.410Z,100990.31
2019-05-01T08:42:48.957Z,100979.53
2019-05-01T08:45:30.839Z,100980.73
2019-05-01T08:48:15.701Z,100981.11
2019-05-01T08:50:46.902Z,100976.08
2019-05-01T08:53:21.783Z,100972.87
2019-05-01T08:55:52.379Z,100978.52
2019-05-01T08:58:23.528Z,100965.92
2019-05-01T09:00:54.607Z,100967.11
2019-05-01T09:03:25.699Z,100964.66
2019-05-01T09:05:57.716Z,100957.84
2019-05-01T09:08:32.057Z,100960.00
2019-05-01T09:11:03.467Z,100949.84
2019-05-01T09:13:34.551Z,100941.80
2019-05-01T09:16:05.636Z,100937.58
2019-05-01T09:18:36.702Z,100932.91
2019-05-01T09:21:07.811Z,100928.48
2019-05-01T09:23:39.764Z,100929.82
2019-05-01T09:26:30.539Z,100926.81
2019-05-01T09:29:11.083Z,100922.70
2019-05-01T09:31:42.369Z,100917.05
2019-05-01T09:34:19.146Z,100913.49
2019-05-01T09:36:47.190Z,100906.84
2019-05-01T09:39:19.915Z,100910.73
2019-05-01T09:41:51.015Z,100906.87
2019-05-01T09:44:25.356Z,100907.04
2019-05-01T09:47:02.517Z,100908.70
2019-05-01T09:49:33.665Z,100900.92
2019-05-01T09:52:23.409Z,100890.61
2019-05-01T09:54:56.757Z,100896.10
2019-05-01T09:57:27.922Z,100883.58
2019-05-01T09:59:59.083Z,100872.28
2019-05-01T10:02:33.463Z,100882.69
2019-05-01T10:05:07.943Z,100880.52
2019-05-01T10:07:39.204Z,100872.76
2019-05-01T10:10:11.145Z,100871.02
2019-05-01T10:12:46.874Z,100859.84
2019-05-01T10:15:16.025Z,100864.95
2019-05-01T10:17:47.184Z,100860.86
2019-05-01T10:20:18.336Z,100859.64
2019-05-01T10:22:49.469Z,100859.60
2019-05-01T10:25:21.385Z,100857.66
2019-05-01T10:27:54.062Z,100850.09
2019-05-01T10:30:31.698Z,100852.16
2019-05-01T10:33:03.713Z,100845.38
2019-05-01T10:35:42.965Z,100842.06
2019-05-01T10:38:10.677Z,100837.56
2019-05-01T10:40:42.854Z,100835.88
2019-05-01T10:43:14.014Z,100839.43
2019-05-01T10:45:45.106Z,100852.44
2019-05-01T10:48:16.145Z,100838.69
2019-05-01T10:50:47.207Z,100838.20
2019-05-01T10:53:18.278Z,100841.06
2019-05-01T10:55:49.488Z,100850.66
2019-05-01T10:58:20.534Z,100850.48
2019-05-01T11:00:53.287Z,100844.39
2019-05-01T11:03:24.310Z,100838.88
2019-05-01T11:05:56.408Z,100843.39
2019-05-01T11:08:27.559Z,100856.41
2019-05-01T11:11:01.034Z,100834.91
2019-05-01T11:13:33.674Z,100836.66
2019-05-01T11:16:05.757Z,100837.19
2019-05-01T11:18:36.798Z,100837.56
2019-05-01T11:21:07.878Z,100841.90
2019-05-01T11:23:38.936Z,100837.46
2019-05-01T11:26:10.862Z,100833.91
2019-05-01T11:28:41.894Z,100835.99
2019-05-01T11:31:14.539Z,100844.43
2019-05-01T11:33:59.416Z,100830.91
2019-05-01T11:36:48.476Z,100822.73
2019-05-01T11:39:21.070Z,100817.88
2019-05-01T11:42:06.690Z,100825.88
2019-05-01T11:44:37.732Z,100829.25
2019-05-01T11:47:08.834Z,100821.50
2019-05-01T11:49:39.907Z,100820.55
2019-05-01T11:52:11.078Z,100817.27
2019-05-01T11:54:42.167Z,100815.22
2019-05-01T11:57:14.114Z,100819.72
2019-05-01T11:59:45.302Z,100806.14
2019-05-01T12:02:16.462Z,100800.58
2019-05-01T12:04:47.667Z,100805.55
2019-05-01T12:07:20.065Z,100805.80
2019-05-01T12:09:51.769Z,100794.28
2019-05-01T12:12:25.403Z,100793.16
2019-05-01T12:14:57.362Z,100780.87
2019-05-01T12:17:33.758Z,100782.28
2019-05-01T12:20:08.827Z,100773.91
2019-05-01T12:22:40.158Z,100766.67
2019-05-01T12:25:11.325Z,100766.33
2019-05-01T12:27:45.090Z,100761.45
2019-05-01T12:30:17.752Z,100751.38
2019-05-01T12:32:49.176Z,100747.99
2019-05-01T12:35:20.386Z,100747.14
2019-05-01T12:37:55.410Z,100741.72
2019-05-01T12:40:26.411Z,100745.61
2019-05-01T12:42:58.366Z,100744.86
2019-05-01T12:45:30.750Z,100737.44
2019-05-01T12:48:03.483Z,100731.34
2019-05-01T12:50:35.878Z,100729.16
2019-05-01T12:53:15.300Z,100726.55
2019-05-01T12:55:49.243Z,100725.31
2019-05-01T12:58:28.961Z,100726.77
2019-05-01T13:01:03.254Z,100720.30
2019-05-01T13:03:35.232Z,100711.69
2019-05-01T13:06:07.678Z,100709.67
2019-05-01T13:08:39.765Z,100700.36
2019-05-01T13:11:11.913Z,100697.34
2019-05-01T13:13:43.949Z,100693.49
2019-05-01T13:16:15.132Z,100691.80
2019-05-01T13:18:46.207Z,100682.38
2019-05-01T13:21:17.353Z,100680.20
2019-05-01T13:23:54.304Z,100680.44
2019-05-01T13:26:30.620Z,100668.33
2019-05-01T13:29:13.056Z,100669.47
2019-05-01T13:31:51.529Z,100672.33
2019-05-01T13:34:22.848Z,100674.23
2019-05-01T13:37:02.784Z,100667.58
2019-05-01T13:39:26.895Z,100660.48
2019-05-01T13:41:58.077Z,100654.06
2019-05-01T13:44:30.120Z,100650.69
2019-05-01T13:47:01.965Z,100647.03
2019-05-01T13:49:33.211Z,100641.66
2019-05-01T13:52:04.440Z,100648.13
2019-05-01T13:54:35.714Z,100650.54
2019-05-01T13:57:06.947Z,100650.02
2019-05-01T13:59:38.239Z,100648.43
2019-05-01T14:02:09.511Z,100662.94
2019-05-01T14:04:40.648Z,100657.81
2019-05-01T14:07:16.608Z,100647.84
2019-05-01T14:09:44.531Z,100654.78
2019-05-01T14:12:15.620Z,100661.41
2019-05-01T14:14:47.792Z,100654.78
2019-05-01T14:17:18.863Z,100661.60
2019-05-01T14:20:03.807Z,100666.53
2019-05-01T14:22:36.635Z,100665.98
2019-05-01T14:25:09.498Z,100665.80
2019-05-01T14:27:41.955Z,100666.71
2019-05-01T14:30:15.340Z,100663.63
2019-05-01T14:32:46.474Z,100662.73
2019-05-01T14:35:17.652Z,100663.03
2019-05-01T14:37:48.729Z,100667.11
2019-05-01T14:40:20.241Z,100665.77
2019-05-01T14:42:52.410Z,100673.34
2019-05-01T14:45:24.359Z,100661.22
2019-05-01T14:47:56.960Z,100663.59
2019-05-01T14:50:28.136Z,100669.23
2019-05-01T14:52:59.207Z,100671.77
2019-05-01T14:55:30.302Z,100670.20
2019-05-01T14:58:02.872Z,100671.04
2019-05-01T15:00:34.891Z,100673.43
2019-05-01T15:03:06.052Z,100665.16
2019-05-01T15:05:37.592Z,100668.14
2019-05-01T15:08:08.650Z,100657.74
2019-05-01T15:10:40.186Z,100667.87
2019-05-01T15:13:16.007Z,100669.72
2019-05-01T15:16:07.393Z,100669.80
2019-05-01T15:18:58.037Z,100678.85
2019-05-01T15:21:29.055Z,100683.84
2019-05-01T15:24:00.148Z,100682.92
2019-05-01T15:26:31.227Z,100672.45
2019-05-01T15:29:02.314Z,100663.77
2019-05-01T15:31:34.290Z,100656.55
2019-05-01T15:34:11.870Z,100657.66
2019-05-01T15:36:43.230Z,100665.23
2019-05-01T15:39:21.941Z,100653.61
2019-05-01T15:42:03.834Z,100656.65
2019-05-01T15:44:39.355Z,100657.07
2019-05-01T15:47:11.348Z,100663.55
2019-05-01T15:49:43.679Z,100657.66
2019-05-01T15:52:16.414Z,100642.70
2019-05-01T15:54:47.592Z,100632.47
2019-05-01T15:57:18.923Z,100636.84
2019-05-01T15:59:50.328Z,100639.55
2019-05-01T16:02:22.257Z,100637.63
2019-05-01T16:04:53.412Z,100628.36
2019-05-01T16:07:25.214Z,100615.83
2019-05-01T16:09:56.339Z,100618.99
2019-05-01T16:12:33.975Z,100615.02
2019-05-01T16:15:09.183Z,100607.27
2019-05-01T16:17:43.231Z,100605.14
2019-05-01T16:20:16.766Z,100612.28
2019-05-01T16:22:47.199Z,100603.73
2019-05-01T16:25:19.808Z,100611.56
2019-05-01T16:27:52.477Z,100608.95
2019-05-01T16:30:26.621Z,100609.33
2019-05-01T16:33:00.271Z,100606.68
2019-05-01T16:35:32.835Z,100595.55
2019-05-01T16:38:05.560Z,100588.07
2019-05-01T16:40:40.965Z,100590.69
2019-05-01T16:43:12.549Z,100585.63
2019-05-01T16:45:45.168Z,100583.70
2019-05-01T16:48:17.899Z,100577.84
2019-05-01T16:50:50.470Z,100575.19
2019-05-01T16:53:21.542Z,100563.13
2019-05-01T16:55:52.694Z,100565.73
2019-05-01T16:58:24.074Z,100554.73
2019-05-01T17:00:58.818Z,100554.86
2019-05-01T17:03:37.744Z,100546.52
2019-05-01T17:06:16.116Z,100541.56
2019-05-01T17:08:48.740Z,100538.56
2019-05-01T17:11:21.378Z,100533.69
2019-05-01T17:13:52.434Z,100537.58
2019-05-01T17:16:23.479Z,100536.80
2019-05-01T17:18:55.858Z,100527.27
2019-05-01T17:21:26.906Z,100521.84
2019-05-01T17:23:58.230Z,100517.26
2019-05-01T17:26:30.406Z,100511.03
2019-05-01T17:29:01.586Z,100500.77
2019-05-01T17:31:32.780Z,100503.41
2019-05-01T17:34:03.990Z,100495.68
2019-05-01T17:36:35.110Z,100500.46
2019-05-01T17:39:08.176Z,100493.48
2019-05-01T17:41:39.297Z,100488.83
2019-05-01T17:44:10.388Z,100492.20
2019-05-01T17:46:41.818Z,100483.53
2019-05-01T17:49:16.796Z,100496.25
2019-05-01T17:51:47.950Z,100488.30
2019-05-01T17:54:19.014Z,100473.02
2019-05-01T17:56:53.727Z,100483.22
2019-05-01T17:59:26.011Z,100475.00
2019-05-01T18:02:16.934Z,100474.36
2019-05-01T18:05:05.667Z,100463.69
2019-05-01T18:07:36.725Z,100463.48
2019-05-01T18:10:09.964Z,100452.95
2019-05-01T18:12:44.057Z,100455.27
2019-05-01T18:15:15.321Z,100445.10
2019-05-01T18:17:46.454Z,100445.27
2019-05-01T18:20:19.943Z,100440.23
2019-05-01T18:23:08.410Z,100437.33
2019-05-01T18:25:47.797Z,100430.06
2019-05-01T18:28:29.869Z,100431.64
2019-05-01T18:31:00.096Z,100428.47
2019-05-01T18:33:31.125Z,100416.64
2019-05-01T18:36:04.152Z,100421.59
2019-05-01T18:38:42.990Z,100408.09
2019-05-01T18:41:19.961Z,100403.95
2019-05-01T18:43:51.020Z,100406.58
2019-05-01T18:46:23.590Z,100400.63
2019-05-01T18:48:56.221Z,100390.45
2019-05-01T18:51:28.194Z,100380.84
2019-05-01T18:53:59.528Z,100386.55
2019-05-01T18:56:30.619Z,100380.18
2019-05-01T18:59:01.691Z,100381.12
2019-05-01T19:01:32.855Z,100378.27
2019-05-01T19:04:05.537Z,100379.74
2019-05-01T19:06:41.773Z,100370.98
2019-05-01T19:09:15.216Z,100376.63
2019-05-01T19:11:42.741Z,100374.78
2019-05-01T19:14:13.923Z,100373.70
2019-05-01T19:16:50.842Z,100358.64
2019-05-01T19:19:25.965Z,100367.43
2019-05-01T19:21:57.875Z,100359.63
2019-05-01T19:24:32.604Z,100365.31
2019-05-01T19:27:05.643Z,100350.36
2019-05-01T19:29:36.768Z,100353.61
2019-05-01T19:32:09.779Z,100338.47
2019-05-01T19:34:40.875Z,100329.52
2019-05-01T19:37:16.471Z,100327.34
2019-05-01T19:39:48.944Z,100329.52
2019-05-01T19:42:21.557Z,100333.31
2019-05-01T19:44:56.144Z,100323.98
2019-05-01T19:47:28.613Z,100310.41
2019-05-01T19:50:06.648Z,100313.05
2019-05-01T19:52:37.813Z,100307.72
2019-05-01T19:55:07.749Z,100302.16
2019-05-01T19:57:42.061Z,100300.75
2019-05-01T20:00:14.917Z,100304.59
2019-05-01T20:02:46.096Z,100287.87
2019-05-01T20:05:17.280Z,100287.35
2019-05-01T20:07:51.175Z,100283.44
2019-05-01T20:10:23.695Z,100275.70
2019-05-01T20:12:54.767Z,100267.94
2019-05-01T20:15:27.433Z,100264.91
2019-05-01T20:18:00.098Z,100261.66
2019-05-01T20:20:31.280Z,100268.67
2019-05-01T20:23:04.128Z,100262.79
2019-05-01T20:25:35.174Z,100262.14
2019-05-01T20:28:09.349Z,100263.38
2019-05-01T20:30:42.006Z,100259.50
2019-05-01T20:33:13.124Z,100256.77
2019-05-01T20:35:44.188Z,100263.64
2019-05-01T20:38:18.348Z,100258.10
2019-05-01T20:40:52.348Z,100256.52
2019-05-01T20:43:23.580Z,100248.70
2019-05-01T20:45:54.648Z,100247.34
2019-05-01T20:48:25.842Z,100242.81
2019-05-01T20:50:58.349Z,100233.56
2019-05-01T20:53:30.308Z,100244.05
2019-05-01T20:56:02.961Z,100239.48
2019-05-01T20:58:34.129Z,100234.75
2019-05-01T21:01:05.542Z,100229.58
2019-05-01T21:03:38.381Z,100232.83
2019-05-01T21:06:11.102Z,100223.10
2019-05-01T21:08:50.117Z,100219.98
2019-05-01T21:11:26.234Z,100216.61
2019-05-01T21:14:15.576Z,100213.37
2019-05-01T21:16:32.948Z,100213.64
2019-05-01T21:19:03.487Z,100208.80
2019-05-01T21:21:34.566Z,100207.36
2019-05-01T21:24:05.766Z,100212.44
2019-05-01T21:26:38.628Z,100208.25
2019-05-01T21:29:09.724Z,100206.80
2019-05-01T21:31:40.986Z,100200.91
2019-05-01T21:34:14.380Z,100205.98
2019-05-01T21:36:47.669Z,100199.72
2019-05-01T21:39:19.895Z,100200.44
2019-05-01T21:41:50.796Z,100168.69
2019-05-01T21:44:23.370Z,100185.63
2019-05-01T21:46:54.788Z,100191.69
2019-05-01T21:49:28.624Z,100182.17
2019-05-01T21:52:03.577Z,100184.48
2019-05-01T21:54:35.610Z,100182.90
2019-05-01T21:57:06.846Z,100175.91
2019-05-01T21:59:43.700Z,100170.86
2019-05-01T22:02:12.432Z,100179.41
2019-05-01T22:04:44.980Z,100181.70
2019-05-01T22:07:16.125Z,100170.27
2019-05-01T22:09:50.559Z,100167.97
2019-05-01T22:12:20.554Z,100164.97
2019-05-01T22:14:56.300Z,100165.57
2019-05-01T22:17:33.419Z,100156.91
2019-05-01T22:20:07.490Z,100160.38
2019-05-01T22:22:44.019Z,100154.73
2019-05-01T22:25:18.355Z,100155.23
2019-05-01T22:27:51.117Z,100152.56
2019-05-01T22:30:27.070Z,100144.75
2019-05-01T22:32:59.642Z,100144.50
2019-05-01T22:35:32.388Z,100145.56
2019-05-01T22:38:05.458Z,100128.97
2019-05-01T22:41:05.526Z,100127.05
2019-05-01T22:43:25.741Z,100132.68
2019-05-01T22:46:01.754Z,100123.08
2019-05-01T22:48:29.648Z,100122.09
2019-05-01T22:51:02.393Z,100122.80
2019-05-01T22:53:33.474Z,100114.51
2019-05-01T22:56:05.436Z,100103.33
2019-05-01T22:58:40.872Z,100114.95
2019-05-01T23:01:13.398Z,100100.18
2019-05-01T23:03:49.001Z,100106.16
2019-05-01T23:06:21.683Z,100105.69
2019-05-01T23:08:52.725Z,100096.52
2019-05-01T23:11:29.373Z,100093.88
2019-05-01T23:14:01.991Z,100096.91
2019-05-01T23:16:34.921Z,100087.86
2019-05-01T23:19:06.104Z,100079.20
2019-05-01T23:21:39.601Z,100080.66
2019-05-01T23:24:12.239Z,100068.28
2019-05-01T23:26:48.085Z,100080.44
2019-05-01T23:29:17.909Z,100074.64
2019-05-01T23:31:49.038Z,100059.62
2019-05-01T23:34:21.218Z,100061.92
2019-05-01T23:36:52.870Z,100062.36
2019-05-01T23:39:23.947Z,100056.59
2019-05-01T23:41:56.508Z,100045.42
2019-05-01T23:44:27.610Z,100055.50
2019-05-01T23:47:00.284Z,100044.10
2019-05-01T23:49:31.307Z,100052.25
2019-05-01T23:52:03.337Z,100050.11
2019-05-01T23:54:35.256Z,100010.32
2019-05-01T23:57:07.140Z,100037.11
2019-05-01T23:59:38.298Z,100031.91
